createdAt,value
2023-01-15T00:01:03.692Z,13.08
2023-01-15T00:03:31.985Z,13.07
2023-01-15T00:06:04.915Z,13.06
2023-01-15T00:08:31.880Z,13.03
2023-01-15T00:10:58.947Z,13.03
2023-01-15T00:13:25.921Z,13.01
2023-01-15T00:15:52.931Z,12.97
2023-01-15T00:18:20.322Z,12.98
2023-01-15T00:20:47.268Z,12.95
2023-01-15T00:23:34.549Z,12.95
2023-01-15T00:26:20.264Z,12.91
2023-01-15T00:28:51.399Z,12.91
2023-01-15T00:31:18.414Z,12.91
2023-01-15T00:33:45.364Z,12.88
2023-01-15T00:36:12.280Z,12.88
2023-01-15T00:38:39.948Z,12.86
2023-01-15T00:41:09.875Z,12.85
2023-01-15T00:43:39.437Z,12.84
2023-01-15T00:46:08.641Z,12.84
2023-01-15T00:48:36.777Z,12.83
2023-01-15T00:51:04.706Z,12.81
2023-01-15T00:53:32.447Z,12.80
2023-01-15T00:56:00.517Z,12.79
2023-01-15T00:58:28.784Z,12.80
2023-01-15T01:01:01.701Z,12.79
2023-01-15T01:03:29.134Z,12.78
2023-01-15T01:06:03.093Z,12.80
2023-01-15T01:08:30.639Z,12.81
2023-01-15T01:11:11.877Z,12.82
2023-01-15T01:13:39.449Z,12.83
2023-01-15T01:16:30.804Z,12.87
2023-01-15T01:19:00.488Z,12.87
2023-01-15T01:21:28.020Z,12.89
2023-01-15T01:23:55.383Z,12.92
2023-01-15T01:26:22.483Z,12.95
2023-01-15T01:28:51.407Z,12.97
2023-01-15T01:31:19.471Z,12.99
2023-01-15T01:33:59.011Z,12.99
2023-01-15T01:36:36.547Z,13.00
2023-01-15T01:39:05.177Z,13.01
2023-01-15T01:41:32.900Z,13.03
2023-01-15T01:44:06.283Z,13.05
2023-01-15T01:46:35.849Z,13.06
2023-01-15T01:49:08.792Z,13.06
2023-01-15T01:51:42.066Z,13.07
2023-01-15T01:54:11.275Z,13.06
2023-01-15T01:56:38.415Z,13.05
2023-01-15T01:59:07.708Z,13.05
2023-01-15T02:01:35.224Z,13.03
2023-01-15T02:04:03.463Z,13.02
2023-01-15T02:06:32.611Z,13.00
2023-01-15T02:09:00.477Z,12.98
2023-01-15T02:11:29.400Z,12.97
2023-01-15T02:14:05.482Z,12.96
2023-01-15T02:16:32.393Z,12.91
2023-01-15T02:19:18.033Z,12.89
2023-01-15T02:21:56.683Z,12.89
2023-01-15T02:24:51.473Z,12.86
2023-01-15T02:27:20.925Z,12.80
2023-01-15T02:30:23.173Z,12.77
2023-01-15T02:33:21.290Z,12.74
2023-01-15T02:36:01.304Z,12.71
2023-01-15T02:38:44.347Z,12.68
2023-01-15T02:41:18.839Z,12.66
2023-01-15T02:43:52.334Z,12.64
2023-01-15T02:46:25.315Z,12.63
2023-01-15T02:48:55.578Z,12.62
2023-01-15T02:51:27.122Z,12.59
2023-01-15T02:53:59.609Z,12.61
2023-01-15T02:56:32.410Z,12.58
2023-01-15T02:59:06.498Z,12.57
2023-01-15T03:01:45.581Z,12.55
2023-01-15T03:04:28.367Z,12.54
2023-01-15T03:07:05.816Z,12.53
2023-01-15T03:09:35.767Z,12.51
2023-01-15T03:12:15.956Z,12.55
2023-01-15T03:14:51.022Z,12.56
2023-01-15T03:17:23.623Z,12.57
2023-01-15T03:19:56.715Z,12.57
2023-01-15T03:22:29.019Z,12.61
2023-01-15T03:25:06.712Z,12.65
2023-01-15T03:27:40.406Z,12.67
2023-01-15T03:30:12.071Z,12.71
2023-01-15T03:32:39.384Z,12.75
2023-01-15T03:35:28.586Z,12.81
2023-01-15T03:37:56.153Z,12.85
2023-01-15T03:40:25.163Z,12.88
2023-01-15T03:43:20.122Z,12.90
2023-01-15T03:45:50.543Z,12.91
2023-01-15T03:48:36.849Z,12.95
2023-01-15T03:51:09.086Z,12.95
2023-01-15T03:53:51.972Z,12.96
2023-01-15T03:56:32.589Z,12.99
2023-01-15T03:59:11.080Z,13.01
2023-01-15T04:01:54.189Z,13.01
2023-01-15T04:04:24.857Z,13.02
2023-01-15T04:06:52.550Z,13.06
2023-01-15T04:09:19.877Z,13.04
2023-01-15T04:11:47.983Z,13.04
2023-01-15T04:14:15.587Z,13.07
2023-01-15T04:16:46.536Z,13.08
2023-01-15T04:19:14.072Z,13.09
2023-01-15T04:22:01.397Z,13.11
2023-01-15T04:24:28.691Z,13.12
2023-01-15T04:26:55.681Z,13.16
2023-01-15T04:29:22.691Z,13.17
2023-01-15T04:31:52.857Z,13.17
2023-01-15T04:34:20.218Z,13.17
2023-01-15T04:36:48.296Z,13.16
2023-01-15T04:39:15.242Z,13.16
2023-01-15T04:42:00.750Z,13.15
2023-01-15T04:44:29.316Z,13.14
2023-01-15T04:46:57.698Z,13.13
2023-01-15T04:49:24.586Z,13.10
2023-01-15T04:51:51.895Z,13.07
2023-01-15T04:54:19.895Z,13.05
2023-01-15T04:56:50.382Z,13.05
2023-01-15T04:59:20.112Z,13.04
2023-01-15T05:02:01.997Z,13.03
2023-01-15T05:04:31.192Z,13.02
2023-01-15T05:06:58.175Z,13.03
2023-01-15T05:09:25.118Z,13.05
2023-01-15T05:11:51.964Z,13.09
2023-01-15T05:14:18.935Z,13.11
2023-01-15T05:16:46.088Z,13.12
2023-01-15T05:19:13.235Z,13.15
2023-01-15T05:21:42.443Z,13.17
2023-01-15T05:24:13.904Z,13.18
2023-01-15T05:26:41.755Z,13.19
2023-01-15T05:29:08.717Z,13.21
2023-01-15T05:31:35.927Z,13.25
2023-01-15T05:34:02.885Z,13.25
2023-01-15T05:36:31.253Z,13.27
2023-01-15T05:39:02.541Z,13.33
2023-01-15T05:41:49.402Z,13.36
2023-01-15T05:44:20.746Z,13.34
2023-01-15T05:46:50.163Z,13.31
2023-01-15T05:49:20.253Z,13.31
2023-01-15T05:51:47.928Z,13.29
2023-01-15T05:54:17.515Z,13.27
2023-01-15T05:56:49.176Z,13.29
2023-01-15T05:59:18.614Z,13.31
2023-01-15T06:01:46.274Z,13.31
2023-01-15T06:04:14.501Z,13.31
2023-01-15T06:06:42.998Z,13.28
2023-01-15T06:09:10.592Z,13.28
2023-01-15T06:11:37.993Z,13.26
2023-01-15T06:14:05.669Z,13.25
2023-01-15T06:16:33.701Z,13.26
2023-01-15T06:19:06.028Z,13.26
2023-01-15T06:21:35.011Z,13.24
2023-01-15T06:24:03.401Z,13.23
2023-01-15T06:26:30.987Z,13.23
2023-01-15T06:28:57.900Z,13.22
2023-01-15T06:31:27.130Z,13.22
2023-01-15T06:33:55.349Z,13.23
2023-01-15T06:36:24.656Z,13.24
2023-01-15T06:38:51.988Z,13.23
2023-01-15T06:41:40.458Z,13.25
2023-01-15T06:44:29.780Z,13.23
2023-01-15T06:47:15.377Z,13.23
2023-01-15T06:49:42.499Z,13.23
2023-01-15T06:52:09.396Z,13.21
2023-01-15T06:54:36.585Z,13.23
2023-01-15T06:57:03.756Z,13.24
2023-01-15T06:59:31.414Z,13.27
2023-01-15T07:01:58.731Z,13.29
2023-01-15T07:04:25.671Z,13.29
2023-01-15T07:06:52.657Z,13.28
2023-01-15T07:09:19.590Z,13.29
2023-01-15T07:11:49.872Z,13.28
2023-01-15T07:14:22.750Z,13.29
2023-01-15T07:16:50.493Z,13.29
2023-01-15T07:19:18.120Z,13.29
2023-01-15T07:21:45.436Z,13.28
2023-01-15T07:24:13.131Z,13.29
2023-01-15T07:26:40.117Z,13.30
2023-01-15T07:29:07.153Z,13.31
2023-01-15T07:31:34.388Z,13.38
2023-01-15T07:34:01.418Z,13.43
2023-01-15T07:36:28.500Z,13.48
2023-01-15T07:38:55.437Z,13.53
2023-01-15T07:41:40.913Z,13.58
2023-01-15T07:44:30.939Z,13.65
2023-01-15T07:47:17.208Z,13.70
2023-01-15T07:49:48.798Z,13.76
2023-01-15T07:52:17.220Z,13.84
2023-01-15T07:54:45.500Z,13.92
2023-01-15T07:57:15.355Z,13.97
2023-01-15T07:59:42.380Z,14.10
2023-01-15T08:02:09.528Z,14.20
2023-01-15T08:04:36.673Z,14.43
2023-01-15T08:07:04.725Z,14.70
2023-01-15T08:09:32.036Z,14.84
2023-01-15T08:12:19.160Z,15.00
2023-01-15T08:15:05.382Z,15.17
2023-01-15T08:17:36.740Z,15.32
2023-01-15T08:20:09.479Z,15.49
2023-01-15T08:22:39.000Z,15.69
2023-01-15T08:25:08.745Z,15.84
2023-01-15T08:27:36.937Z,15.89
2023-01-15T08:30:09.975Z,15.93
2023-01-15T08:32:37.003Z,16.07
2023-01-15T08:35:04.359Z,16.20
2023-01-15T08:37:31.879Z,16.30
2023-01-15T08:39:58.809Z,16.46
2023-01-15T08:42:25.784Z,16.96
2023-01-15T08:44:52.834Z,17.99
2023-01-15T08:47:19.757Z,18.92
2023-01-15T08:49:50.756Z,18.66
2023-01-15T08:52:17.859Z,18.55
2023-01-15T08:54:44.909Z,18.46
2023-01-15T08:57:13.827Z,18.66
2023-01-15T08:59:43.581Z,19.15
2023-01-15T09:02:15.293Z,18.82
2023-01-15T09:04:42.585Z,18.71
2023-01-15T09:07:09.652Z,18.65
2023-01-15T09:09:36.723Z,18.57
2023-01-15T09:12:03.885Z,18.57
2023-01-15T09:14:56.032Z,18.55
2023-01-15T09:17:22.812Z,18.51
2023-01-15T09:19:50.012Z,18.46
2023-01-15T09:22:16.930Z,18.53
2023-01-15T09:24:44.006Z,18.83
2023-01-15T09:27:15.442Z,20.33
2023-01-15T09:29:42.341Z,21.19
2023-01-15T09:32:10.656Z,22.07
2023-01-15T09:34:37.744Z,21.24
2023-01-15T09:37:04.668Z,21.04
2023-01-15T09:39:32.102Z,20.35
2023-01-15T09:42:17.794Z,19.91
2023-01-15T09:45:05.722Z,19.49
2023-01-15T09:47:59.222Z,19.50
2023-01-15T09:50:54.962Z,19.94
2023-01-15T09:53:37.228Z,19.89
2023-01-15T09:56:04.998Z,20.65
2023-01-15T09:58:41.245Z,22.18
2023-01-15T10:01:17.356Z,22.28
2023-01-15T10:03:50.655Z,22.81
2023-01-15T10:06:26.578Z,26.06
2023-01-15T10:09:14.005Z,30.93
2023-01-15T10:12:05.121Z,34.52
2023-01-15T10:15:04.429Z,37.29
2023-01-15T10:17:42.183Z,37.94
2023-01-15T10:20:36.802Z,39.63
2023-01-15T10:23:32.819Z,39.73
2023-01-15T10:25:59.757Z,38.66
2023-01-15T10:28:45.895Z,39.27
2023-01-15T10:31:42.324Z,41.74
2023-01-15T10:34:31.444Z,42.75
2023-01-15T10:37:54.300Z,44.27
2023-01-15T10:40:35.851Z,44.84
2023-01-15T10:43:43.977Z,44.85
2023-01-15T10:46:19.544Z,45.88
2023-01-15T10:48:51.831Z,45.98
2023-01-15T10:51:22.505Z,46.67
2023-01-15T10:53:55.518Z,47.02
2023-01-15T10:56:37.475Z,45.78
2023-01-15T10:59:24.717Z,45.57
2023-01-15T11:01:54.901Z,43.91
2023-01-15T11:04:22.780Z,44.72
2023-01-15T11:06:50.047Z,44.72
2023-01-15T11:09:24.155Z,44.50
2023-01-15T11:12:02.031Z,45.38
2023-01-15T11:14:57.630Z,45.13
2023-01-15T11:17:51.289Z,46.32
2023-01-15T11:20:45.528Z,46.02
2023-01-15T11:23:20.112Z,46.86
2023-01-15T11:25:53.574Z,43.68
2023-01-15T11:28:32.433Z,38.86
2023-01-15T11:30:59.642Z,35.68
2023-01-15T11:33:28.653Z,33.42
2023-01-15T11:36:02.119Z,31.77
2023-01-15T11:38:46.677Z,31.10
2023-01-15T11:41:19.973Z,30.30
2023-01-15T11:44:14.465Z,29.44
2023-01-15T11:47:00.196Z,28.62
2023-01-15T11:49:45.567Z,27.82
2023-01-15T11:52:19.644Z,27.00
2023-01-15T11:54:51.689Z,26.44
2023-01-15T11:57:33.783Z,26.29
2023-01-15T12:00:05.326Z,25.69
2023-01-15T12:02:47.773Z,24.11
2023-01-15T12:05:36.008Z,23.51
2023-01-15T12:08:16.921Z,22.97
2023-01-15T12:11:25.240Z,21.99
2023-01-15T12:14:30.396Z,21.47
2023-01-15T12:17:12.966Z,20.85
2023-01-15T12:19:50.577Z,20.91
2023-01-15T12:22:40.200Z,20.84
2023-01-15T12:25:42.675Z,20.42
2023-01-15T12:28:26.838Z,20.58
2023-01-15T12:31:09.192Z,20.67
2023-01-15T12:33:43.555Z,20.57
2023-01-15T12:44:11.672Z,19.28
2023-01-15T12:47:07.803Z,19.15
2023-01-15T12:49:47.660Z,18.94
2023-01-15T12:52:24.470Z,19.03
2023-01-15T12:55:02.221Z,18.73
2023-01-15T12:57:40.383Z,18.79
2023-01-15T13:04:13.306Z,18.29
2023-01-15T13:06:54.707Z,18.07
2023-01-15T13:10:32.599Z,17.92
2023-01-15T13:13:26.647Z,18.07
2023-01-15T13:16:20.315Z,17.88
2023-01-15T13:19:28.339Z,17.78
2023-01-15T13:22:04.214Z,17.95
2023-01-15T13:25:03.196Z,17.89
2023-01-15T13:31:10.640Z,17.86
2023-01-15T13:33:49.543Z,17.93
2023-01-15T13:36:29.005Z,17.82
2023-01-15T13:39:13.067Z,17.83
2023-01-15T13:41:59.768Z,17.88
2023-01-15T13:44:35.769Z,17.53
2023-01-15T13:47:19.028Z,17.47
2023-01-15T13:49:50.438Z,17.58
2023-01-15T13:52:37.863Z,17.63
2023-01-15T13:55:38.992Z,17.62
2023-01-15T13:58:22.695Z,17.41
2023-01-15T14:01:59.945Z,17.60
2023-01-15T14:04:38.824Z,17.73
2023-01-15T14:07:20.322Z,17.65
2023-01-15T14:09:47.941Z,17.33
2023-01-15T14:12:45.068Z,17.32
2023-01-15T14:15:52.721Z,17.16
2023-01-15T14:18:38.108Z,16.99
2023-01-15T14:21:19.935Z,16.97
2023-01-15T14:23:58.969Z,17.15
2023-01-15T14:26:25.899Z,17.18
2023-01-15T14:29:54.239Z,17.02
2023-01-15T14:32:21.226Z,16.89
2023-01-15T14:35:32.229Z,17.02
2023-01-15T14:38:06.485Z,17.10
2023-01-15T14:41:29.667Z,17.06
2023-01-15T14:44:01.629Z,16.96
2023-01-15T14:49:46.225Z,17.02
2023-01-15T14:52:13.579Z,16.98
2023-01-15T14:54:44.047Z,17.00
2023-01-15T14:57:11.484Z,16.86
2023-01-15T15:03:02.677Z,16.71
2023-01-15T15:05:31.634Z,16.65
2023-01-15T15:08:01.353Z,16.65
2023-01-15T15:11:14.452Z,16.58
2023-01-15T15:13:46.888Z,16.53
2023-01-15T15:16:27.122Z,16.56
2023-01-15T15:19:07.207Z,16.51
2023-01-15T15:21:40.478Z,16.41
2023-01-15T15:24:32.833Z,16.54
2023-01-15T15:27:15.897Z,16.59
2023-01-15T15:29:46.516Z,16.65
2023-01-15T15:32:22.532Z,16.71
2023-01-15T15:34:52.165Z,16.71
2023-01-15T15:37:23.397Z,16.77
2023-01-15T15:40:13.171Z,16.80
2023-01-15T15:43:06.896Z,16.82
2023-01-15T15:45:52.579Z,16.84
2023-01-15T15:49:10.376Z,16.83
2023-01-15T15:51:53.120Z,16.80
2023-01-15T15:54:31.715Z,16.81
2023-01-15T15:57:09.778Z,16.80
2023-01-15T15:59:48.082Z,16.86
2023-01-15T16:02:36.472Z,16.77
2023-01-15T16:05:19.167Z,16.76
2023-01-15T16:07:46.838Z,16.72
2023-01-15T16:10:27.615Z,16.71
2023-01-15T16:12:58.253Z,16.64
2023-01-15T16:15:34.327Z,16.50
2023-01-15T16:18:24.465Z,16.52
2023-01-15T16:20:54.772Z,16.47
2023-01-15T16:23:28.507Z,16.47
2023-01-15T16:26:21.844Z,16.46
2023-01-15T16:29:18.249Z,16.41
2023-01-15T16:31:45.767Z,16.43
2023-01-15T16:34:20.246Z,16.44
2023-01-15T16:36:47.341Z,16.33
2023-01-15T16:40:14.515Z,16.24
2023-01-15T16:42:45.504Z,16.12
2023-01-15T16:45:32.352Z,16.08
2023-01-15T16:48:38.565Z,16.07
2023-01-15T16:51:52.682Z,15.98
2023-01-15T16:55:46.491Z,15.92
2023-01-15T16:58:13.606Z,15.88
2023-01-15T17:00:51.773Z,15.80
2023-01-15T17:03:24.413Z,15.74
2023-01-15T17:06:05.975Z,15.74
2023-01-15T17:08:56.639Z,15.70
2023-01-15T17:11:30.151Z,15.66
2023-01-15T17:14:20.835Z,15.68
2023-01-15T17:17:26.010Z,15.68
2023-01-15T17:24:12.741Z,15.57
2023-01-15T17:26:39.819Z,15.50
2023-01-15T17:29:06.758Z,15.51
2023-01-15T17:35:48.967Z,15.44
2023-01-15T17:38:20.551Z,15.42
2023-01-15T17:40:48.572Z,15.45
2023-01-15T17:43:16.305Z,15.42
2023-01-15T17:45:43.602Z,15.40
2023-01-15T17:52:41.897Z,15.28
2023-01-15T18:07:02.155Z,15.02
2023-01-15T18:09:56.477Z,14.99
2023-01-15T18:12:31.276Z,14.94
2023-01-15T18:14:58.409Z,14.93
2023-01-15T18:17:29.722Z,14.86
2023-01-15T18:19:56.938Z,14.79
2023-01-15T18:22:24.109Z,14.79
2023-01-15T18:24:51.380Z,14.80
2023-01-15T18:27:18.289Z,14.77
2023-01-15T18:29:45.253Z,14.76
2023-01-15T18:32:13.416Z,14.74
2023-01-15T18:34:43.540Z,14.72
2023-01-15T18:37:10.552Z,14.72
2023-01-15T18:39:37.477Z,14.65
2023-01-15T18:42:05.428Z,14.59
2023-01-15T18:44:51.824Z,14.49
2023-01-15T18:47:18.759Z,14.45
2023-01-15T18:49:46.661Z,14.41
2023-01-15T18:52:34.484Z,14.37
2023-01-15T18:55:01.472Z,14.31
2023-01-15T18:57:28.436Z,14.28
2023-01-15T18:59:55.415Z,14.23
2023-01-15T19:02:22.528Z,14.18
2023-01-15T19:04:49.811Z,14.13
2023-01-15T19:07:17.758Z,14.09
2023-01-15T19:09:44.777Z,14.06
2023-01-15T19:12:12.079Z,14.03
2023-01-15T19:14:57.575Z,13.96
2023-01-15T19:17:44.189Z,13.91
2023-01-15T19:20:18.871Z,13.84
2023-01-15T19:23:06.738Z,13.78
2023-01-15T19:25:45.131Z,13.76
2023-01-15T19:28:15.990Z,13.72
2023-01-15T19:31:04.456Z,13.68
2023-01-15T19:33:31.922Z,13.64
2023-01-15T19:35:58.956Z,13.62
2023-01-15T19:38:26.017Z,13.53
2023-01-15T19:40:52.962Z,13.51
2023-01-15T19:43:38.694Z,13.48
2023-01-15T19:46:27.094Z,13.46
2023-01-15T19:49:13.237Z,13.44
2023-01-15T19:52:00.213Z,13.41
2023-01-15T19:54:45.590Z,13.38
2023-01-15T19:57:12.621Z,13.34
2023-01-15T19:59:39.531Z,13.33
2023-01-15T20:02:06.567Z,13.27
2023-01-15T20:04:33.526Z,13.19
2023-01-15T20:07:00.779Z,13.19
2023-01-15T20:09:27.755Z,13.20
2023-01-15T20:12:14.705Z,13.16
2023-01-15T20:14:41.661Z,13.15
2023-01-15T20:17:08.699Z,13.16
2023-01-15T20:19:35.713Z,13.18
2023-01-15T20:22:02.627Z,13.12
2023-01-15T20:24:29.691Z,13.12
2023-01-15T20:26:56.817Z,13.15
2023-01-15T20:29:23.786Z,13.17
2023-01-15T20:31:50.717Z,13.18
2023-01-15T20:34:18.083Z,13.23
2023-01-15T20:36:45.168Z,13.28
2023-01-15T20:39:22.402Z,13.29
2023-01-15T20:42:07.892Z,13.29
2023-01-15T20:44:55.406Z,13.35
2023-01-15T20:47:46.452Z,13.34
2023-01-15T20:50:16.207Z,13.34
2023-01-15T20:52:48.282Z,13.37
2023-01-15T20:55:16.697Z,13.40
2023-01-15T20:57:44.182Z,13.39
2023-01-15T21:00:17.634Z,13.38
2023-01-15T21:02:45.478Z,13.37
2023-01-15T21:05:12.501Z,13.26
2023-01-15T21:07:39.655Z,13.26
2023-01-15T21:10:09.070Z,13.31
2023-01-15T21:12:36.119Z,13.36
2023-01-15T21:15:03.317Z,13.32
2023-01-15T21:17:31.476Z,13.32
2023-01-15T21:19:58.494Z,13.35
2023-01-15T21:22:30.581Z,13.18
2023-01-15T21:24:58.545Z,13.03
2023-01-15T21:27:25.552Z,12.87
2023-01-15T21:29:52.768Z,12.80
2023-01-15T21:32:19.867Z,12.58
2023-01-15T21:34:48.619Z,12.72
2023-01-15T21:37:16.630Z,12.72
2023-01-15T21:39:43.561Z,12.74
2023-01-15T21:42:39.925Z,12.63
2023-01-15T21:45:08.448Z,12.63
2023-01-15T21:47:37.063Z,12.57
2023-01-15T21:50:05.679Z,12.46
2023-01-15T21:52:34.151Z,12.40
2023-01-15T21:55:01.232Z,12.38
2023-01-15T21:57:31.552Z,12.39
2023-01-15T21:59:58.574Z,12.46
2023-01-15T22:02:25.690Z,12.43
2023-01-15T22:04:52.873Z,12.39
2023-01-15T22:07:19.862Z,12.37
2023-01-15T22:09:46.805Z,12.19
2023-01-15T22:12:14.105Z,12.22
2023-01-15T22:14:41.106Z,12.24
2023-01-15T22:17:08.637Z,12.19
2023-01-15T22:19:35.637Z,11.95
2023-01-15T22:22:08.940Z,11.79
2023-01-15T22:24:37.786Z,11.75
2023-01-15T22:27:06.648Z,11.54
2023-01-15T22:29:38.630Z,11.69
2023-01-15T22:32:10.485Z,11.64
2023-01-15T22:34:37.427Z,11.77
2023-01-15T22:37:04.468Z,11.57
2023-01-15T22:39:31.992Z,11.62
2023-01-15T22:42:17.571Z,11.66
2023-01-15T22:44:45.223Z,11.60
2023-01-15T22:47:13.789Z,11.60
2023-01-15T22:49:40.686Z,11.57
2023-01-15T22:52:07.688Z,11.56
2023-01-15T22:54:34.771Z,11.71
2023-01-15T22:57:02.073Z,11.78
2023-01-15T22:59:29.021Z,11.86
2023-01-15T23:01:56.068Z,11.92
2023-01-15T23:04:25.317Z,12.04
2023-01-15T23:06:53.135Z,12.12
2023-01-15T23:09:22.373Z,12.20
2023-01-15T23:11:51.545Z,12.22
2023-01-15T23:14:19.983Z,12.29
2023-01-15T23:16:47.080Z,12.30
2023-01-15T23:19:14.646Z,12.33
2023-01-15T23:21:42.249Z,12.34
2023-01-15T23:24:10.549Z,12.34
2023-01-15T23:26:37.733Z,12.35
2023-01-15T23:29:06.529Z,12.36
2023-01-15T23:31:34.090Z,12.33
2023-01-15T23:34:01.589Z,12.33
2023-01-15T23:36:28.541Z,12.34
2023-01-15T23:38:55.538Z,12.31
2023-01-15T23:41:44.140Z,12.31
2023-01-15T23:44:38.153Z,12.28
2023-01-15T23:47:09.265Z,12.31
2023-01-15T23:49:39.865Z,12.33
2023-01-15T23:52:06.931Z,12.34
2023-01-15T23:54:33.784Z,12.34
2023-01-15T23:57:02.178Z,12.30
2023-01-15T23:59:29.796Z,12.29
